createdAt,value
2023-06-16T00:02:18.862Z,96517.28
2023-06-16T00:04:50.806Z,96511.09
2023-06-16T00:07:20.920Z,96511.09
2023-06-16T00:09:48.768Z,96519.19
2023-06-16T00:12:16.491Z,96513.22
2023-06-16T00:14:44.243Z,96502.69
2023-06-16T00:17:13.507Z,96498.56
2023-06-16T00:19:42.082Z,96494.16
2023-06-16T00:22:10.878Z,96503.97
2023-06-16T00:24:38.681Z,96495.66
2023-06-16T00:27:07.012Z,96483.78
2023-06-16T00:29:34.791Z,96478.34
2023-06-16T00:32:02.627Z,96486.09
2023-06-16T00:34:31.810Z,96493.91
2023-06-16T00:37:00.040Z,96497.09
2023-06-16T00:39:27.806Z,96508.53
2023-06-16T00:41:55.975Z,96514.63
2023-06-16T00:44:23.830Z,96509.84
2023-06-16T00:46:51.805Z,96518.97
2023-06-16T00:49:20.219Z,96521.66
2023-06-16T00:51:50.493Z,96552.09
2023-06-16T00:54:18.665Z,96530.00
2023-06-16T00:56:46.577Z,96530.94
2023-06-16T00:59:14.506Z,96511.84
2023-06-16T01:01:42.290Z,96499.25
2023-06-16T01:04:10.944Z,96490.59
2023-06-16T01:06:52.578Z,96468.72
2023-06-16T01:09:26.707Z,96463.59
2023-06-16T01:12:08.212Z,96481.91
2023-06-16T01:14:44.824Z,96492.13
2023-06-16T01:17:16.458Z,96490.47
2023-06-16T01:19:48.616Z,96489.28
2023-06-16T01:22:23.653Z,96487.19
2023-06-16T01:24:55.789Z,96478.00
2023-06-16T01:27:24.227Z,96460.25
2023-06-16T01:29:52.760Z,96464.56
2023-06-16T01:32:22.632Z,96476.06
2023-06-16T01:34:52.246Z,96480.31
2023-06-16T01:37:20.780Z,96481.38
2023-06-16T01:39:49.856Z,96483.94
2023-06-16T01:42:19.909Z,96470.41
2023-06-16T01:44:49.114Z,96465.97
2023-06-16T01:47:17.069Z,96472.28
2023-06-16T01:49:45.417Z,96465.63
2023-06-16T01:52:13.248Z,96463.41
2023-06-16T01:54:40.983Z,96466.75
2023-06-16T01:57:09.051Z,96469.78
2023-06-16T01:59:38.223Z,96482.47
2023-06-16T02:02:14.668Z,96487.97
2023-06-16T02:04:47.402Z,96494.88
2023-06-16T02:07:20.627Z,96507.41
2023-06-16T02:09:51.016Z,96512.28
2023-06-16T02:12:19.434Z,96509.50
2023-06-16T02:14:49.337Z,96513.31
2023-06-16T02:17:17.087Z,96503.91
2023-06-16T02:19:44.837Z,96513.94
2023-06-16T02:22:12.669Z,96512.81
2023-06-16T02:24:40.377Z,96513.56
2023-06-16T02:27:10.105Z,96511.59
2023-06-16T02:29:37.943Z,96510.72
2023-06-16T02:32:08.256Z,96516.28
2023-06-16T02:34:36.123Z,96521.19
2023-06-16T02:37:04.174Z,96524.44
2023-06-16T02:39:31.998Z,96529.31
2023-06-16T02:42:00.917Z,96527.06
2023-06-16T02:44:28.715Z,96524.97
2023-06-16T02:46:58.172Z,96532.78
2023-06-16T02:49:27.743Z,96528.19
2023-06-16T02:51:55.641Z,96527.41
2023-06-16T02:54:23.370Z,96536.97
2023-06-16T02:56:51.115Z,96531.72
2023-06-16T02:59:18.898Z,96536.47
2023-06-16T03:01:46.689Z,96528.94
2023-06-16T03:04:14.612Z,96528.59
2023-06-16T03:06:46.191Z,96534.16
2023-06-16T03:09:13.974Z,96535.78
2023-06-16T03:11:42.793Z,96528.47
2023-06-16T03:14:10.716Z,96532.69
2023-06-16T03:16:41.935Z,96534.50
2023-06-16T03:19:09.789Z,96538.66
2023-06-16T03:21:38.383Z,96531.94
2023-06-16T03:24:07.884Z,96526.28
2023-06-16T03:26:37.497Z,96528.22
2023-06-16T03:29:06.707Z,96529.38
2023-06-16T03:31:34.739Z,96533.59
2023-06-16T03:34:14.775Z,96536.31
2023-06-16T03:36:50.691Z,96537.72
2023-06-16T03:39:19.903Z,96526.63
2023-06-16T03:41:47.636Z,96532.16
2023-06-16T03:44:15.435Z,96532.84
2023-06-16T03:46:43.137Z,96529.63
2023-06-16T03:49:12.974Z,96535.44
2023-06-16T03:51:41.225Z,96537.50
2023-06-16T03:54:09.292Z,96539.63
2023-06-16T03:56:38.382Z,96545.50
2023-06-16T03:59:06.144Z,96548.34
2023-06-16T04:01:33.999Z,96544.53
2023-06-16T04:04:01.770Z,96533.88
2023-06-16T04:06:29.570Z,96542.09
2023-06-16T04:08:58.191Z,96549.03
2023-06-16T04:11:27.620Z,96554.91
2023-06-16T04:13:56.895Z,96550.00
2023-06-16T04:16:24.635Z,96556.19
2023-06-16T04:18:52.414Z,96554.88
2023-06-16T04:21:20.176Z,96555.78
2023-06-16T04:23:47.935Z,96562.28
2023-06-16T04:26:20.325Z,96550.88
2023-06-16T04:28:54.509Z,96555.72
2023-06-16T04:31:23.908Z,96549.81
2023-06-16T04:33:51.608Z,96552.53
2023-06-16T04:36:20.634Z,96552.38
2023-06-16T04:38:48.543Z,96544.03
2023-06-16T04:41:16.265Z,96548.69
2023-06-16T04:43:44.027Z,96549.22
2023-06-16T04:46:12.007Z,96550.34
2023-06-16T04:48:41.208Z,96545.00
2023-06-16T04:51:09.389Z,96552.09
2023-06-16T04:53:37.903Z,96549.00
2023-06-16T04:56:07.786Z,96544.41
2023-06-16T04:58:38.013Z,96547.38
2023-06-16T05:01:05.780Z,96545.00
2023-06-16T05:03:33.655Z,96541.91
2023-06-16T05:06:03.008Z,96549.56
2023-06-16T05:08:30.804Z,96547.25
2023-06-16T05:10:58.541Z,96552.97
2023-06-16T05:13:26.313Z,96560.31
2023-06-16T05:15:54.729Z,96555.53
2023-06-16T05:18:22.527Z,96552.84
2023-06-16T05:20:50.560Z,96554.69
2023-06-16T05:23:19.669Z,96558.75
2023-06-16T05:25:47.431Z,96560.63
2023-06-16T05:28:15.237Z,96554.66
2023-06-16T05:30:43.021Z,96553.50
2023-06-16T05:33:10.832Z,96558.72
2023-06-16T05:35:38.686Z,96557.88
2023-06-16T05:38:06.482Z,96559.22
2023-06-16T05:40:36.352Z,96561.19
2023-06-16T05:43:04.226Z,96561.22
2023-06-16T05:45:31.968Z,96559.84
2023-06-16T05:47:59.726Z,96560.97
2023-06-16T05:50:27.502Z,96562.31
2023-06-16T05:52:55.181Z,96562.31
2023-06-16T05:55:23.097Z,96565.53
2023-06-16T05:57:52.311Z,96571.16
2023-06-16T06:00:20.900Z,96563.13
2023-06-16T06:02:49.133Z,96571.75
2023-06-16T06:05:17.355Z,96563.09
2023-06-16T06:07:45.091Z,96556.53
2023-06-16T06:10:12.926Z,96568.91
2023-06-16T06:12:40.761Z,96571.72
2023-06-16T06:15:11.886Z,96570.69
2023-06-16T06:17:39.708Z,96567.06
2023-06-16T06:20:08.762Z,96576.03
2023-06-16T06:22:36.463Z,96568.56
2023-06-16T06:25:05.613Z,96564.84
2023-06-16T06:27:33.401Z,96567.31
2023-06-16T06:30:01.173Z,96577.38
2023-06-16T06:32:30.313Z,96582.41
2023-06-16T06:34:58.039Z,96577.00
2023-06-16T06:37:30.362Z,96572.44
2023-06-16T06:39:58.270Z,96572.63
2023-06-16T06:42:27.812Z,96577.28
2023-06-16T06:44:55.661Z,96572.03
2023-06-16T06:47:23.666Z,96578.81
2023-06-16T06:49:52.834Z,96585.88
2023-06-16T06:52:20.786Z,96579.31
2023-06-16T06:54:48.744Z,96580.06
2023-06-16T06:57:16.693Z,96592.94
2023-06-16T06:59:44.619Z,96590.84
2023-06-16T07:02:12.405Z,96588.91
2023-06-16T07:04:40.933Z,96593.63
2023-06-16T07:07:10.115Z,96596.19
2023-06-16T07:09:37.921Z,96594.16
2023-06-16T07:12:06.316Z,96582.00
2023-06-16T07:14:34.080Z,96585.00
2023-06-16T07:17:03.660Z,96590.47
2023-06-16T07:19:31.401Z,96595.53
2023-06-16T07:21:59.144Z,96597.94
2023-06-16T07:24:28.424Z,96601.28
2023-06-16T07:26:56.416Z,96607.59
2023-06-16T07:29:24.166Z,96604.22
2023-06-16T07:31:51.951Z,96607.13
2023-06-16T07:34:19.832Z,96608.50
2023-06-16T07:36:47.955Z,96615.06
2023-06-16T07:39:15.709Z,96615.44
2023-06-16T07:41:44.838Z,96614.88
2023-06-16T07:44:12.598Z,96616.78
2023-06-16T07:49:08.672Z,96614.06
2023-06-16T07:51:36.487Z,96604.66
2023-06-16T07:54:05.093Z,96602.56
2023-06-16T07:56:32.827Z,96599.34
2023-06-16T07:59:02.270Z,96604.84
2023-06-16T08:01:30.196Z,96603.72
2023-06-16T08:03:59.200Z,96598.53
2023-06-16T08:06:28.273Z,96598.22
2023-06-16T08:08:57.624Z,96596.13
2023-06-16T08:11:25.540Z,96600.66
2023-06-16T08:13:53.570Z,96583.81
2023-06-16T08:16:22.912Z,96585.72
2023-06-16T08:18:51.662Z,96591.75
2023-06-16T08:21:20.627Z,96583.56
2023-06-16T08:23:48.927Z,96580.31
2023-06-16T08:26:17.064Z,96583.66
2023-06-16T08:28:45.859Z,96586.88
2023-06-16T08:31:13.932Z,96580.94
2023-06-16T08:33:43.043Z,96585.16
2023-06-16T08:36:11.139Z,96580.88
2023-06-16T08:38:41.578Z,96586.34
2023-06-16T08:41:11.344Z,96586.47
2023-06-16T08:43:39.573Z,96582.66
2023-06-16T08:46:10.200Z,96584.06
2023-06-16T08:48:39.068Z,96587.66
2023-06-16T08:51:12.233Z,96587.75
2023-06-16T08:53:41.728Z,96578.38
2023-06-16T08:56:11.943Z,96582.34
2023-06-16T08:58:41.784Z,96584.25
2023-06-16T09:01:09.966Z,96582.88
2023-06-16T09:03:38.527Z,96559.06
2023-06-16T09:06:10.411Z,96577.75
2023-06-16T09:08:38.063Z,96574.84
2023-06-16T09:11:08.798Z,96573.88
2023-06-16T09:13:37.344Z,96567.91
2023-06-16T09:16:07.150Z,96575.47
2023-06-16T09:18:42.733Z,96571.84
2023-06-16T09:21:12.614Z,96563.31
2023-06-16T09:23:40.593Z,96560.66
2023-06-16T09:26:13.363Z,96553.78
2023-06-16T09:28:41.318Z,96551.97
2023-06-16T09:31:13.432Z,96550.22
2023-06-16T09:33:41.821Z,96545.03
2023-06-16T09:36:11.396Z,96542.09
2023-06-16T09:38:39.925Z,96542.28
2023-06-16T09:41:11.978Z,96548.22
2023-06-16T09:43:40.970Z,96541.78
2023-06-16T09:46:11.460Z,96541.19
2023-06-16T09:48:48.496Z,96540.81
2023-06-16T09:51:22.996Z,96545.59
2023-06-16T09:53:53.103Z,96534.81
2023-06-16T09:56:21.620Z,96528.53
2023-06-16T09:58:51.120Z,96518.00
2023-06-16T10:01:20.704Z,96527.16
2023-06-16T10:03:50.609Z,96527.81
2023-06-16T10:06:23.054Z,96518.38
2023-06-16T10:08:52.178Z,96523.47
2023-06-16T10:11:21.127Z,96518.88
2023-06-16T10:13:52.967Z,96521.63
2023-06-16T10:16:24.141Z,96516.44
2023-06-16T10:18:56.164Z,96523.28
2023-06-16T10:21:25.593Z,96518.94
2023-06-16T10:23:55.070Z,96519.66
2023-06-16T10:26:23.629Z,96519.81
2023-06-16T10:28:52.631Z,96529.66
2023-06-16T10:31:20.888Z,96534.25
2023-06-16T10:33:55.536Z,96525.13
2023-06-16T10:36:25.958Z,96528.13
2023-06-16T10:38:59.063Z,96529.84
2023-06-16T10:41:27.845Z,96521.81
2023-06-16T10:43:55.535Z,96524.00
2023-06-16T10:46:23.564Z,96518.38
2023-06-16T10:49:13.214Z,96500.84
2023-06-16T10:51:43.931Z,96511.91
2023-06-16T10:54:11.712Z,96525.09
2023-06-16T10:59:56.013Z,96521.81
2023-06-16T11:02:25.898Z,96515.19
2023-06-16T11:05:16.352Z,96517.69
2023-06-16T11:07:47.662Z,96506.97
2023-06-16T11:10:20.111Z,96508.59
2023-06-16T11:12:48.466Z,96505.53
2023-06-16T11:15:16.455Z,96507.78
2023-06-16T11:17:45.106Z,96508.25
2023-06-16T11:20:14.525Z,96509.94
2023-06-16T11:22:44.030Z,96507.16
2023-06-16T11:25:14.202Z,96507.41
2023-06-16T11:27:42.254Z,96501.22
2023-06-16T11:30:10.549Z,96497.44
2023-06-16T11:32:39.480Z,96497.75
2023-06-16T11:35:08.243Z,96501.84
2023-06-16T11:37:43.604Z,96498.75
2023-06-16T11:40:12.810Z,96504.38
2023-06-16T11:42:42.064Z,96493.44
2023-06-16T11:45:10.597Z,96490.81
2023-06-16T11:47:38.834Z,96499.38
2023-06-16T11:50:07.927Z,96496.19
2023-06-16T11:52:37.504Z,96500.94
2023-06-16T11:55:06.153Z,96498.78
2023-06-16T11:57:38.230Z,96491.81
2023-06-16T12:00:09.878Z,96487.81
2023-06-16T12:02:38.037Z,96498.16
2023-06-16T12:05:08.602Z,96490.00
2023-06-16T12:07:37.292Z,96491.16
2023-06-16T12:10:06.531Z,96483.88
2023-06-16T12:12:34.885Z,96480.06
2023-06-16T12:15:04.720Z,96488.22
2023-06-16T12:17:35.298Z,96495.16
2023-06-16T12:20:07.875Z,96490.03
2023-06-16T12:22:39.742Z,96486.03
2023-06-16T12:25:11.700Z,96488.81
2023-06-16T12:27:39.944Z,96478.53
2023-06-16T12:30:09.089Z,96476.41
2023-06-16T12:32:38.400Z,96472.84
2023-06-16T12:35:07.068Z,96469.28
2023-06-16T12:37:34.880Z,96461.72
2023-06-16T12:40:07.370Z,96467.75
2023-06-16T12:42:35.994Z,96464.94
2023-06-16T12:45:06.482Z,96469.94
2023-06-16T12:47:35.621Z,96467.53
2023-06-16T12:50:07.085Z,96467.50
2023-06-16T12:52:34.702Z,96460.19
2023-06-16T12:55:04.791Z,96463.44
2023-06-16T12:57:32.754Z,96457.28
2023-06-16T13:00:00.624Z,96452.69
2023-06-16T13:02:28.467Z,96458.16
2023-06-16T13:04:56.577Z,96450.09
2023-06-16T13:07:25.900Z,96447.19
2023-06-16T13:09:53.663Z,96446.91
2023-06-16T13:12:21.624Z,96441.06
2023-06-16T13:14:49.468Z,96438.78
2023-06-16T13:17:17.512Z,96441.78
2023-06-16T13:19:47.400Z,96428.03
2023-06-16T13:22:17.133Z,96441.38
2023-06-16T13:24:46.355Z,96431.94
2023-06-16T13:27:14.141Z,96429.13
2023-06-16T13:29:41.897Z,96423.69
2023-06-16T13:32:09.950Z,96427.22
2023-06-16T13:34:37.760Z,96427.19
2023-06-16T13:37:05.866Z,96421.75
2023-06-16T13:39:33.678Z,96418.44
2023-06-16T13:42:02.766Z,96416.22
2023-06-16T13:44:30.553Z,96411.72
2023-06-16T13:46:58.332Z,96406.47
2023-06-16T13:49:26.191Z,96399.50
2023-06-16T13:51:54.021Z,96396.03
2023-06-16T13:54:21.809Z,96402.69
2023-06-16T13:56:51.226Z,96400.34
2023-06-16T13:59:20.445Z,96396.59
2023-06-16T14:01:48.253Z,96392.06
2023-06-16T14:04:16.038Z,96395.63
2023-06-16T14:06:44.841Z,96390.59
2023-06-16T14:09:12.665Z,96388.66
2023-06-16T14:11:40.509Z,96388.34
2023-06-16T14:14:08.302Z,96386.00
2023-06-16T14:16:37.583Z,96380.22
2023-06-16T14:19:06.044Z,96380.81
2023-06-16T14:21:33.814Z,96385.00
2023-06-16T14:24:01.665Z,96383.03
2023-06-16T14:26:29.440Z,96373.66
2023-06-16T14:28:57.215Z,96382.66
2023-06-16T14:31:25.301Z,96375.94
2023-06-16T14:33:55.909Z,96349.22
2023-06-16T14:36:23.671Z,96367.97
2023-06-16T14:38:51.507Z,96370.00
2023-06-16T14:41:19.293Z,96370.16
2023-06-16T14:43:47.119Z,96373.84
2023-06-16T14:46:14.883Z,96362.38
2023-06-16T14:48:42.659Z,96365.22
2023-06-16T14:51:11.860Z,96368.25
2023-06-16T14:53:39.662Z,96364.88
2023-06-16T14:56:07.475Z,96360.66
2023-06-16T14:58:35.282Z,96359.00
2023-06-16T15:01:03.058Z,96356.19
2023-06-16T15:03:30.938Z,96355.28
2023-06-16T15:05:58.845Z,96358.53
2023-06-16T15:08:27.998Z,96356.09
2023-06-16T15:10:55.835Z,96348.66
2023-06-16T15:13:23.552Z,96355.81
2023-06-16T15:15:51.493Z,96353.50
2023-06-16T15:18:19.358Z,96360.47
2023-06-16T15:20:47.142Z,96357.84
2023-06-16T15:23:14.921Z,96350.38
2023-06-16T15:25:44.058Z,96341.97
2023-06-16T15:28:13.145Z,96351.66
2023-06-16T15:30:41.230Z,96357.41
2023-06-16T15:33:09.099Z,96366.22
2023-06-16T15:35:37.104Z,96354.81
2023-06-16T15:38:04.965Z,96353.84
2023-06-16T15:40:32.655Z,96348.00
2023-06-16T15:43:06.432Z,96345.16
2023-06-16T15:45:34.181Z,96346.53
2023-06-16T15:48:02.776Z,96337.41
2023-06-16T15:50:31.562Z,96336.94
2023-06-16T15:52:59.314Z,96338.13
2023-06-16T15:55:27.181Z,96335.03
2023-06-16T15:57:54.972Z,96334.69
2023-06-16T16:00:24.142Z,96338.69
2023-06-16T16:02:52.031Z,96337.19
2023-06-16T16:05:20.637Z,96338.09
2023-06-16T16:07:48.444Z,96329.84
2023-06-16T16:10:16.887Z,96330.19
2023-06-16T16:12:44.654Z,96336.97
2023-06-16T16:15:12.630Z,96338.69
2023-06-16T16:17:41.898Z,96330.91
2023-06-16T16:20:10.626Z,96328.88
2023-06-16T16:22:38.454Z,96325.41
2023-06-16T16:25:06.974Z,96335.22
2023-06-16T16:27:37.113Z,96332.59
2023-06-16T16:30:05.702Z,96330.19
2023-06-16T16:32:33.465Z,96331.56
2023-06-16T16:35:02.744Z,96330.69
2023-06-16T16:37:30.467Z,96337.88
2023-06-16T16:39:58.195Z,96344.84
2023-06-16T16:42:26.095Z,96337.75
2023-06-16T16:44:53.977Z,96334.38
2023-06-16T16:47:21.813Z,96337.56
2023-06-16T16:49:49.595Z,96343.56
2023-06-16T16:52:18.684Z,96329.50
2023-06-16T16:54:46.540Z,96334.28
2023-06-16T16:57:14.483Z,96339.00
2023-06-16T16:59:42.290Z,96344.38
2023-06-16T17:02:10.132Z,96348.56
2023-06-16T17:04:38.097Z,96348.78
2023-06-16T17:07:08.182Z,96345.81
2023-06-16T17:09:39.068Z,96359.47
2023-06-16T17:12:07.925Z,96345.72
2023-06-16T17:14:35.704Z,96350.22
2023-06-16T17:17:03.492Z,96356.06
2023-06-16T17:19:31.272Z,96355.06
2023-06-16T17:21:59.280Z,96366.00
2023-06-16T17:24:27.839Z,96351.72
2023-06-16T17:26:57.512Z,96354.84
2023-06-16T17:29:25.499Z,96364.19
2023-06-16T17:31:53.261Z,96362.94
2023-06-16T17:34:21.095Z,96369.25
2023-06-16T17:36:48.807Z,96358.59
2023-06-16T17:39:16.521Z,96371.41
2023-06-16T17:41:44.447Z,96361.25
2023-06-16T17:44:13.843Z,96367.88
2023-06-16T17:46:42.230Z,96369.69
2023-06-16T17:49:10.095Z,96370.66
2023-06-16T17:54:05.995Z,96370.66
2023-06-16T17:56:34.635Z,96371.28
2023-06-16T17:59:02.896Z,96384.03
2023-06-16T18:01:32.196Z,96377.56
2023-06-16T18:04:00.380Z,96368.72
2023-06-16T18:06:28.129Z,96372.88
2023-06-16T18:08:56.614Z,96370.94
2023-06-16T18:11:24.567Z,96371.72
2023-06-16T18:13:52.445Z,96369.53
2023-06-16T18:16:20.241Z,96366.84
2023-06-16T18:18:49.370Z,96369.59
2023-06-16T18:21:17.254Z,96370.88
2023-06-16T18:23:45.073Z,96379.75
2023-06-16T18:26:12.951Z,96373.59
2023-06-16T18:28:40.771Z,96377.94
2023-06-16T18:31:08.600Z,96375.34
2023-06-16T18:33:36.405Z,96375.47
2023-06-16T18:36:06.027Z,96374.28
2023-06-16T18:38:33.771Z,96381.50
2023-06-16T18:41:02.073Z,96379.75
2023-06-16T18:43:29.825Z,96377.16
2023-06-16T18:45:57.698Z,96382.41
2023-06-16T18:48:25.727Z,96375.91
2023-06-16T18:50:53.523Z,96384.84
2023-06-16T18:53:23.358Z,96385.56
2023-06-16T18:55:51.718Z,96380.75
2023-06-16T18:58:19.576Z,96378.97
2023-06-16T19:00:47.376Z,96374.31
2023-06-16T19:03:15.202Z,96385.97
2023-06-16T19:05:43.135Z,96380.84
2023-06-16T19:08:12.400Z,96387.50
2023-06-16T19:10:41.611Z,96386.72
2023-06-16T19:13:10.444Z,96393.19
2023-06-16T19:15:38.343Z,96387.19
2023-06-16T19:18:06.215Z,96390.88
2023-06-16T19:20:34.074Z,96394.16
2023-06-16T19:23:01.859Z,96399.59
2023-06-16T19:25:29.643Z,96400.38
2023-06-16T19:27:58.937Z,96398.28
2023-06-16T19:30:26.935Z,96399.06
2023-06-16T19:32:54.860Z,96397.56
2023-06-16T19:35:24.179Z,96399.28
2023-06-16T19:37:52.132Z,96401.25
2023-06-16T19:40:20.149Z,96409.72
2023-06-16T19:42:48.148Z,96422.84
2023-06-16T19:45:17.787Z,96422.44
2023-06-16T19:47:47.058Z,96421.13
2023-06-16T19:50:14.999Z,96420.38
2023-06-16T19:52:44.346Z,96432.81
2023-06-16T19:55:12.272Z,96431.88
2023-06-16T19:57:39.981Z,96437.06
2023-06-16T20:00:09.710Z,96439.28
2023-06-16T20:02:39.387Z,96448.59
2023-06-16T20:05:07.915Z,96447.28
2023-06-16T20:07:37.961Z,96451.44
2023-06-16T20:10:06.436Z,96457.28
2023-06-16T20:12:34.222Z,96455.25
2023-06-16T20:15:02.202Z,96454.97
2023-06-16T20:17:29.992Z,96457.91
2023-06-16T20:19:59.056Z,96455.72
2023-06-16T20:22:26.856Z,96457.25
2023-06-16T20:24:54.626Z,96463.22
2023-06-16T20:27:22.381Z,96460.28
2023-06-16T20:29:50.862Z,96470.69
2023-06-16T20:32:18.677Z,96460.28
2023-06-16T20:34:47.378Z,96464.53
2023-06-16T20:37:18.478Z,96468.19
2023-06-16T20:39:46.644Z,96465.41
2023-06-16T20:42:15.343Z,96469.38
2023-06-16T20:44:43.332Z,96461.81
2023-06-16T20:47:11.115Z,96467.88
2023-06-16T20:49:41.433Z,96473.09
2023-06-16T20:52:09.727Z,96469.41
2023-06-16T20:54:38.884Z,96467.56
2023-06-16T20:57:07.825Z,96463.28
2023-06-16T20:59:36.701Z,96467.81
2023-06-16T21:02:07.303Z,96469.56
2023-06-16T21:04:35.232Z,96470.13
2023-06-16T21:07:03.870Z,96463.69
2023-06-16T21:09:32.372Z,96464.69
2023-06-16T21:12:01.458Z,96465.41
2023-06-16T21:14:29.273Z,96474.94
2023-06-16T21:16:57.022Z,96467.13
2023-06-16T21:19:37.930Z,96474.75
2023-06-16T21:22:09.997Z,96476.50
2023-06-16T21:24:37.800Z,96476.50
2023-06-16T21:27:07.615Z,96474.03
2023-06-16T21:29:35.446Z,96464.09
2023-06-16T21:32:03.466Z,96471.16
2023-06-16T21:34:31.257Z,96459.34
2023-06-16T21:37:00.185Z,96462.25
2023-06-16T21:39:29.234Z,96459.28
2023-06-16T21:41:57.003Z,96459.91
2023-06-16T21:44:26.438Z,96459.28
2023-06-16T21:46:54.226Z,96467.97
2023-06-16T21:49:21.945Z,96459.84
2023-06-16T21:51:49.708Z,96465.38
2023-06-16T21:54:17.416Z,96452.41
2023-06-16T21:56:45.175Z,96462.06
2023-06-16T21:59:13.280Z,96463.25
2023-06-16T22:01:42.366Z,96466.47
2023-06-16T22:04:10.161Z,96462.44
2023-06-16T22:06:38.457Z,96463.06
2023-06-16T22:09:06.287Z,96469.22
2023-06-16T22:11:34.237Z,96467.13
2023-06-16T22:14:02.127Z,96468.63
2023-06-16T22:16:30.039Z,96461.59
2023-06-16T22:18:59.199Z,96470.84
2023-06-16T22:21:26.992Z,96463.56
2023-06-16T22:23:54.873Z,96462.78
2023-06-16T22:26:23.509Z,96464.91
2023-06-16T22:28:52.074Z,96465.59
2023-06-16T22:31:21.172Z,96454.56
2023-06-16T22:33:48.928Z,96456.25
2023-06-16T22:36:18.055Z,96461.72
2023-06-16T22:38:46.099Z,96464.63
2023-06-16T22:41:13.828Z,96451.03
2023-06-16T22:43:41.908Z,96459.22
2023-06-16T22:46:09.729Z,96456.28
2023-06-16T22:48:37.728Z,96466.91
2023-06-16T22:51:06.022Z,96463.13
2023-06-16T22:53:35.122Z,96463.47
2023-06-16T22:56:05.089Z,96460.25
2023-06-16T22:58:32.953Z,96458.41
2023-06-16T23:01:00.698Z,96456.19
2023-06-16T23:03:28.477Z,96461.19
2023-06-16T23:05:56.302Z,96455.75
2023-06-16T23:08:24.336Z,96457.41
2023-06-16T23:10:53.494Z,96453.72
2023-06-16T23:13:21.338Z,96451.06
2023-06-16T23:15:50.770Z,96456.41
2023-06-16T23:18:18.582Z,96452.97
2023-06-16T23:20:46.711Z,96460.75
2023-06-16T23:23:14.748Z,96448.41
2023-06-16T23:25:42.663Z,96452.25
2023-06-16T23:28:11.759Z,96450.91
2023-06-16T23:30:40.121Z,96452.78
2023-06-16T23:33:08.043Z,96444.97
2023-06-16T23:35:35.796Z,96448.22
2023-06-16T23:38:04.049Z,96442.81
2023-06-16T23:40:31.801Z,96452.56
2023-06-16T23:42:59.550Z,96447.44
2023-06-16T23:45:28.750Z,96443.34
2023-06-16T23:47:56.492Z,96443.91
2023-06-16T23:50:24.337Z,96452.03
2023-06-16T23:52:52.132Z,96442.00
2023-06-16T23:55:19.875Z,96445.00
2023-06-16T23:57:48.250Z,96442.31
